Marsum, Netherlands
Current Conditions -  °F | °C
As of 7:25 AM on Wednesday 28 Jan 2015 (Local Time) from EHLW Reporting Station
Haze Haze  
Wind Chill: 33°   Ceiling: 2300
Heat Index: 41°   Visibility: 4mi
Dew Point: 39°   Wind: 16mph
Humidity: 93%   Direction: 210°SSW
Pressure: 29.77"   Gusts: NA
Location:  53.21°N, 5.73°E
Report Text: EHLW 280625Z AUTO 21014KT 6000 BR SCT019 BKN023 OVC026 05/04 Q1008 WHT
Loading
Personal Weather Stations






























Interactive Weather Map New forecast layout! Learn more

10-Day Weather Forecast

Advertisements
Track Severe Weather on mobile